createdAt,value
2024-01-26T00:01:34.667Z,12.40
2024-01-26T00:05:16.809Z,12.40
2024-01-26T00:09:10.831Z,12.30
2024-01-26T00:12:52.884Z,12.40
2024-01-26T00:16:39.821Z,12.30
2024-01-26T00:20:26.387Z,12.40
2024-01-26T00:24:09.548Z,12.30
2024-01-26T00:27:51.623Z,12.30
2024-01-26T00:31:33.842Z,12.30
2024-01-26T00:35:16.830Z,12.30
2024-01-26T00:38:58.781Z,12.30
2024-01-26T00:42:40.764Z,12.30
2024-01-26T00:46:22.884Z,12.30
2024-01-26T00:50:05.656Z,12.30
2024-01-26T00:53:47.669Z,12.30
2024-01-26T00:57:29.963Z,12.30
2024-01-26T01:01:12.198Z,12.30
2024-01-26T01:04:54.374Z,12.30
2024-01-26T01:08:36.463Z,12.30
2024-01-26T01:12:18.704Z,12.30
2024-01-26T01:16:02.322Z,12.30
2024-01-26T01:19:44.298Z,12.20
2024-01-26T01:23:27.305Z,12.20
2024-01-26T01:27:09.668Z,12.20
2024-01-26T01:30:51.704Z,12.20
2024-01-26T01:34:33.847Z,12.20
2024-01-26T01:38:15.865Z,12.20
2024-01-26T01:41:57.869Z,12.20
2024-01-26T01:45:39.843Z,12.20
2024-01-26T01:49:23.944Z,12.10
2024-01-26T01:53:08.546Z,12.10
2024-01-26T01:56:51.243Z,12.10
2024-01-26T02:00:34.013Z,12.00
2024-01-26T02:04:16.150Z,12.00
2024-01-26T02:07:58.158Z,12.00
2024-01-26T02:11:40.265Z,12.00
2024-01-26T02:15:22.416Z,12.00
2024-01-26T02:19:04.628Z,11.90
2024-01-26T02:22:46.657Z,11.90
2024-01-26T02:26:28.656Z,11.80
2024-01-26T02:30:11.384Z,11.80
2024-01-26T02:33:56.251Z,11.70
2024-01-26T02:37:38.672Z,11.60
2024-01-26T02:41:20.670Z,11.50
2024-01-26T02:45:02.688Z,11.50
2024-01-26T02:48:45.166Z,11.50
2024-01-26T02:52:27.250Z,11.50
2024-01-26T02:56:09.491Z,11.50
2024-01-26T02:59:51.722Z,11.60
2024-01-26T03:03:34.270Z,11.60
2024-01-26T03:07:16.347Z,11.70
2024-01-26T03:10:58.429Z,11.60
2024-01-26T03:14:40.611Z,11.60
2024-01-26T03:18:22.798Z,11.70
2024-01-26T03:22:05.244Z,11.60
2024-01-26T03:25:47.241Z,11.60
2024-01-26T03:29:29.300Z,11.60
2024-01-26T03:33:11.439Z,11.60
2024-01-26T03:36:54.095Z,11.50
2024-01-26T03:40:36.199Z,11.40
2024-01-26T03:44:18.218Z,11.30
2024-01-26T03:48:00.313Z,11.10
2024-01-26T03:51:42.389Z,11.00
2024-01-26T03:55:24.460Z,10.80
2024-01-26T03:59:06.418Z,10.60
2024-01-26T04:02:48.561Z,10.50
2024-01-26T04:06:30.750Z,10.30
2024-01-26T04:10:12.812Z,10.20
2024-01-26T04:13:54.743Z,10.10
2024-01-26T04:17:36.846Z,10.10
2024-01-26T04:21:20.435Z,10.00
2024-01-26T04:25:02.551Z,10.00
2024-01-26T04:28:44.726Z,9.90
2024-01-26T04:32:26.921Z,9.80
2024-01-26T04:36:10.076Z,9.80
2024-01-26T04:39:52.291Z,9.70
2024-01-26T04:43:34.542Z,9.70
2024-01-26T04:47:17.553Z,9.60
2024-01-26T04:50:59.559Z,9.50
2024-01-26T04:54:41.507Z,9.40
2024-01-26T04:58:23.511Z,9.30
2024-01-26T05:02:05.942Z,9.20
2024-01-26T05:05:48.017Z,9.10
2024-01-26T05:09:29.992Z,8.90
2024-01-26T05:13:12.791Z,8.80
2024-01-26T05:16:54.770Z,8.70
2024-01-26T05:20:36.746Z,8.60
2024-01-26T05:24:18.899Z,8.50
2024-01-26T05:28:00.885Z,8.40
2024-01-26T05:31:42.981Z,8.30
2024-01-26T05:35:25.005Z,8.20
2024-01-26T05:39:07.075Z,8.10
2024-01-26T05:42:49.157Z,8.00
2024-01-26T05:46:31.742Z,8.00
2024-01-26T05:50:16.138Z,7.90
2024-01-26T05:53:58.344Z,7.80
2024-01-26T05:57:40.485Z,7.70
2024-01-26T06:01:22.536Z,7.60
2024-01-26T06:05:05.298Z,7.50
2024-01-26T06:08:47.754Z,7.40
2024-01-26T06:12:29.799Z,7.40
2024-01-26T06:16:15.342Z,7.40
2024-01-26T06:19:57.434Z,7.30
2024-01-26T06:23:42.897Z,7.20
2024-01-26T06:27:25.041Z,7.20
2024-01-26T06:31:07.053Z,7.10
2024-01-26T06:34:49.253Z,7.00
2024-01-26T06:38:31.386Z,6.90
2024-01-26T06:42:13.808Z,6.80
2024-01-26T06:45:55.819Z,6.80
2024-01-26T06:49:37.834Z,6.70
2024-01-26T06:53:20.610Z,6.60
2024-01-26T06:57:02.897Z,6.60
2024-01-26T07:00:45.381Z,6.50
2024-01-26T07:04:27.706Z,6.50
2024-01-26T07:08:10.698Z,6.40
2024-01-26T07:11:52.716Z,6.40
2024-01-26T07:15:37.166Z,6.20
2024-01-26T07:19:19.512Z,6.20
2024-01-26T07:23:02.065Z,6.10
2024-01-26T07:26:44.705Z,6.10
2024-01-26T07:30:26.729Z,6.00
2024-01-26T07:34:09.185Z,6.00
2024-01-26T07:37:53.738Z,5.90
2024-01-26T07:41:35.966Z,5.90
2024-01-26T07:45:18.072Z,5.90
2024-01-26T07:49:02.218Z,5.80
2024-01-26T07:52:44.485Z,5.80
2024-01-26T07:56:26.508Z,5.80
2024-01-26T08:00:10.246Z,5.80
2024-01-26T08:03:52.706Z,5.70
2024-01-26T08:07:34.826Z,5.70
2024-01-26T08:11:20.405Z,5.70
2024-01-26T08:15:03.080Z,5.70
2024-01-26T08:18:57.185Z,5.60
2024-01-26T08:22:42.030Z,5.60
2024-01-26T08:26:24.241Z,5.60
2024-01-26T08:30:11.240Z,5.60
2024-01-26T08:38:03.641Z,5.70
2024-01-26T08:45:57.608Z,5.90
2024-01-26T08:53:52.111Z,6.20
2024-01-26T08:58:20.627Z,6.50
2024-01-26T09:06:15.509Z,7.30
2024-01-26T09:10:19.447Z,7.80
2024-01-26T09:14:06.902Z,8.30
2024-01-26T09:21:59.252Z,9.30
2024-01-26T09:25:41.669Z,9.90
2024-01-26T09:29:27.896Z,10.40
2024-01-26T09:33:13.865Z,10.90
2024-01-26T09:36:57.670Z,11.50
2024-01-26T09:41:22.394Z,12.20
2024-01-26T09:45:16.449Z,12.90
2024-01-26T09:49:01.792Z,13.30
2024-01-26T09:56:55.108Z,13.90
2024-01-26T10:04:46.913Z,14.30
2024-01-26T10:12:39.858Z,13.20
2024-01-26T10:16:22.053Z,12.10
2024-01-26T10:20:08.861Z,11.20
2024-01-26T10:23:56.197Z,10.50
2024-01-26T10:27:38.879Z,9.90
2024-01-26T10:31:24.753Z,9.50
2024-01-26T10:35:11.995Z,9.20
2024-01-26T10:43:06.572Z,8.90
2024-01-26T10:47:35.830Z,8.70
2024-01-26T10:55:29.375Z,8.50
2024-01-26T11:03:22.237Z,8.40
2024-01-26T11:11:21.906Z,8.30
2024-01-26T11:15:20.158Z,8.20
2024-01-26T11:19:09.354Z,8.20
2024-01-26T11:23:36.266Z,8.20
2024-01-26T11:31:32.098Z,8.20
2024-01-26T11:35:59.444Z,8.20
2024-01-26T11:39:43.054Z,8.20
2024-01-26T11:43:32.300Z,8.20
2024-01-26T11:47:18.231Z,8.20
2024-01-26T11:55:09.726Z,8.20
2024-01-26T11:58:52.124Z,8.20
2024-01-26T12:02:41.469Z,8.20
2024-01-26T12:06:27.538Z,8.20
2024-01-26T12:14:20.834Z,8.20
2024-01-26T12:22:12.841Z,8.20
2024-01-26T12:25:55.479Z,8.30
2024-01-26T12:29:43.846Z,8.20
2024-01-26T12:33:28.622Z,8.20
2024-01-26T12:41:21.912Z,8.30
2024-01-26T12:45:04.482Z,8.30
2024-01-26T12:48:50.141Z,8.30
2024-01-26T12:52:38.887Z,8.30
2024-01-26T13:00:32.325Z,8.30
2024-01-26T13:08:24.165Z,8.40
2024-01-26T13:16:17.041Z,8.40
2024-01-26T13:20:05.452Z,8.40
2024-01-26T13:24:09.789Z,8.40
2024-01-26T13:27:52.348Z,8.40
2024-01-26T13:32:03.177Z,8.40
2024-01-26T13:39:58.127Z,8.40
2024-01-26T13:47:53.732Z,8.40
2024-01-26T13:52:18.224Z,8.50
2024-01-26T14:00:21.404Z,8.50
2024-01-26T14:04:25.156Z,8.50
2024-01-26T14:08:07.427Z,8.50
2024-01-26T14:19:40.178Z,8.40
2024-01-26T14:23:29.744Z,8.40
2024-01-26T14:27:15.869Z,8.40
2024-01-26T14:35:07.735Z,8.40
2024-01-26T14:38:49.944Z,8.40
2024-01-26T14:42:39.663Z,8.40
2024-01-26T14:46:26.427Z,8.40
2024-01-26T14:50:54.692Z,8.40
2024-01-26T14:54:36.863Z,8.40
2024-01-26T14:58:54.288Z,8.40
2024-01-26T15:02:54.473Z,8.30
2024-01-26T15:06:39.820Z,8.30
2024-01-26T15:10:22.302Z,8.30
2024-01-26T15:14:11.383Z,8.30
2024-01-26T15:18:01.063Z,8.30
2024-01-26T15:22:01.652Z,8.30
2024-01-26T15:34:52.128Z,8.10
2024-01-26T15:43:02.387Z,8.10
2024-01-26T15:46:50.827Z,8.10
2024-01-26T15:50:37.139Z,8.00
2024-01-26T16:03:07.585Z,7.90
2024-01-26T16:15:40.170Z,7.80
2024-01-26T16:24:26.487Z,7.60
2024-01-26T16:32:25.059Z,7.40
2024-01-26T16:36:48.078Z,7.40
2024-01-26T16:44:40.870Z,7.20
2024-01-26T16:52:35.339Z,7.00
2024-01-26T16:56:17.734Z,6.90
2024-01-26T16:59:59.824Z,6.70
2024-01-26T17:03:43.110Z,6.60
2024-01-26T17:07:25.159Z,6.60
2024-01-26T17:11:07.104Z,6.50
2024-01-26T17:14:49.674Z,6.40
2024-01-26T17:18:34.616Z,6.30
2024-01-26T17:22:16.664Z,6.20
2024-01-26T17:25:59.465Z,6.20
2024-01-26T17:29:41.416Z,6.00
2024-01-26T17:33:23.835Z,5.90
2024-01-26T17:37:06.926Z,5.90
2024-01-26T17:40:49.373Z,5.80
2024-01-26T17:44:31.317Z,5.70
2024-01-26T17:48:13.418Z,5.60
2024-01-26T17:51:55.529Z,5.50
2024-01-26T17:55:40.097Z,5.50
2024-01-26T17:59:24.105Z,5.40
2024-01-26T18:03:06.283Z,5.30
2024-01-26T18:06:48.462Z,5.20
2024-01-26T18:10:30.484Z,5.20
2024-01-26T18:14:13.841Z,5.10
2024-01-26T18:17:56.467Z,5.00
2024-01-26T18:21:38.462Z,5.00
2024-01-26T18:25:20.500Z,4.90
2024-01-26T18:29:02.800Z,4.80
2024-01-26T18:32:45.069Z,4.80
2024-01-26T18:36:29.254Z,4.70
2024-01-26T18:40:14.776Z,4.60
2024-01-26T18:43:58.131Z,4.60
2024-01-26T18:47:40.700Z,4.50
2024-01-26T18:51:24.140Z,4.50
2024-01-26T18:55:06.590Z,4.50
2024-01-26T18:58:48.933Z,4.40
2024-01-26T19:02:31.625Z,4.30
2024-01-26T19:06:13.882Z,4.30
2024-01-26T19:09:56.298Z,4.20
2024-01-26T19:13:39.698Z,4.20
2024-01-26T19:17:21.957Z,4.20
2024-01-26T19:25:15.910Z,4.10
2024-01-26T19:28:58.000Z,4.10
2024-01-26T19:32:43.395Z,4.00
2024-01-26T19:36:28.889Z,4.00
2024-01-26T19:40:11.816Z,3.90
2024-01-26T19:43:53.902Z,3.80
2024-01-26T19:47:36.495Z,3.80
2024-01-26T19:55:03.275Z,3.70
2024-01-26T19:58:45.416Z,3.60
2024-01-26T20:02:27.554Z,3.60
2024-01-26T20:06:11.709Z,3.50
2024-01-26T20:09:55.210Z,3.50
2024-01-26T20:13:38.243Z,3.40
2024-01-26T20:17:21.104Z,3.30
2024-01-26T20:21:08.122Z,3.20
2024-01-26T20:24:50.490Z,3.20
2024-01-26T20:28:32.600Z,3.10
2024-01-26T20:32:14.717Z,3.10
2024-01-26T20:35:56.988Z,3.00
2024-01-26T20:39:39.094Z,3.00
2024-01-26T20:43:21.313Z,2.90
2024-01-26T20:47:03.376Z,2.90
2024-01-26T20:50:45.626Z,2.90
2024-01-26T20:54:27.976Z,2.80
2024-01-26T20:58:10.010Z,2.70
2024-01-26T21:01:52.111Z,2.70
2024-01-26T21:05:41.875Z,2.70
2024-01-26T21:09:24.112Z,2.60
2024-01-26T21:13:06.363Z,2.60
2024-01-26T21:16:48.872Z,2.60
2024-01-26T21:20:30.979Z,2.50
2024-01-26T21:24:13.179Z,2.50
2024-01-26T21:27:55.288Z,2.50
2024-01-26T21:31:37.437Z,2.40
2024-01-26T21:35:19.631Z,2.40
2024-01-26T21:39:02.027Z,2.40
2024-01-26T21:42:44.235Z,2.50
2024-01-26T21:46:31.032Z,2.40
2024-01-26T21:50:13.712Z,2.50
2024-01-26T21:53:56.538Z,2.50
2024-01-26T21:57:38.814Z,2.50
2024-01-26T22:01:21.280Z,2.50
2024-01-26T22:05:03.368Z,2.50
2024-01-26T22:08:45.411Z,2.50
2024-01-26T22:12:27.491Z,2.50
2024-01-26T22:16:10.574Z,2.50
2024-01-26T22:19:52.632Z,2.50
2024-01-26T22:23:34.787Z,2.50
2024-01-26T22:27:17.980Z,2.50
2024-01-26T22:31:00.071Z,2.50
2024-01-26T22:34:42.053Z,2.40
2024-01-26T22:38:24.047Z,2.40
2024-01-26T22:42:07.049Z,2.40
2024-01-26T22:45:49.094Z,2.30
2024-01-26T22:49:31.182Z,2.30
2024-01-26T22:53:13.410Z,2.20
2024-01-26T22:56:55.664Z,2.20
2024-01-26T23:00:39.364Z,2.20
2024-01-26T23:04:21.416Z,2.10
2024-01-26T23:08:03.811Z,2.00
2024-01-26T23:11:45.941Z,2.00
2024-01-26T23:15:28.105Z,2.00
2024-01-26T23:19:10.227Z,1.90
2024-01-26T23:22:52.459Z,1.90
2024-01-26T23:26:34.440Z,1.90
2024-01-26T23:30:16.530Z,1.90
2024-01-26T23:33:58.670Z,1.90
2024-01-26T23:37:40.789Z,1.80
2024-01-26T23:41:22.797Z,1.90
2024-01-26T23:45:05.289Z,1.80
2024-01-26T23:48:47.520Z,1.80
2024-01-26T23:52:30.023Z,1.80
2024-01-26T23:56:12.077Z,1.90
2024-01-26T23:59:54.164Z,1.80
